sensor_id;sensor_type;location;lat;lon;timestamp;P1;durP1;ratioP1;P2;durP2;ratioP2
17658;SDS011;8948;51.534;8.262;2022-08-21T00:02:02;14.95;;;7.38;;
17658;SDS011;8948;51.534;8.262;2022-08-21T00:07:03;10.85;;;6.38;;
17658;SDS011;8948;51.534;8.262;2022-08-21T00:12:04;16.70;;;6.70;;
17658;SDS011;8948;51.534;8.262;2022-08-21T00:17:05;14.73;;;7.20;;
17658;SDS011;8948;51.534;8.262;2022-08-21T00:22:06;14.30;;;6.45;;
17658;SDS011;8948;51.534;8.262;2022-08-21T00:27:07;14.52;;;6.80;;
17658;SDS011;8948;51.534;8.262;2022-08-21T00:32:08;14.93;;;5.97;;
17658;SDS011;8948;51.534;8.262;2022-08-21T00:37:08;15.27;;;6.63;;
17658;SDS011;8948;51.534;8.262;2022-08-21T00:42:09;12.52;;;6.10;;
17658;SDS011;8948;51.534;8.262;2022-08-21T00:47:14;21.35;;;7.38;;
17658;SDS011;8948;51.534;8.262;2022-08-21T00:52:17;13.43;;;5.90;;
17658;SDS011;8948;51.534;8.262;2022-08-21T00:57:24;17.90;;;6.38;;
17658;SDS011;8948;51.534;8.262;2022-08-21T01:02:27;16.38;;;7.45;;
17658;SDS011;8948;51.534;8.262;2022-08-21T01:07:28;14.38;;;7.13;;
17658;SDS011;8948;51.534;8.262;2022-08-21T01:12:29;19.55;;;6.93;;
17658;SDS011;8948;51.534;8.262;2022-08-21T01:17:29;11.52;;;6.38;;
17658;SDS011;8948;51.534;8.262;2022-08-21T01:22:32;17.38;;;7.00;;
17658;SDS011;8948;51.534;8.262;2022-08-21T01:27:32;13.52;;;6.13;;
17658;SDS011;8948;51.534;8.262;2022-08-21T01:32:33;15.63;;;6.47;;
17658;SDS011;8948;51.534;8.262;2022-08-21T01:37:34;16.33;;;6.15;;
17658;SDS011;8948;51.534;8.262;2022-08-21T01:42:36;12.85;;;6.45;;
17658;SDS011;8948;51.534;8.262;2022-08-21T01:47:37;14.63;;;6.60;;
17658;SDS011;8948;51.534;8.262;2022-08-21T01:52:38;17.15;;;7.45;;
17658;SDS011;8948;51.534;8.262;2022-08-21T01:57:39;14.63;;;6.50;;
17658;SDS011;8948;51.534;8.262;2022-08-21T02:02:40;17.60;;;6.75;;
17658;SDS011;8948;51.534;8.262;2022-08-21T02:07:46;12.75;;;6.82;;
17658;SDS011;8948;51.534;8.262;2022-08-21T02:12:51;11.95;;;6.57;;
17658;SDS011;8948;51.534;8.262;2022-08-21T02:17:53;17.48;;;7.00;;
17658;SDS011;8948;51.534;8.262;2022-08-21T02:22:56;20.08;;;7.95;;
17658;SDS011;8948;51.534;8.262;2022-08-21T02:27:57;15.23;;;7.00;;
17658;SDS011;8948;51.534;8.262;2022-08-21T02:32:59;13.38;;;7.20;;
17658;SDS011;8948;51.534;8.262;2022-08-21T02:38:02;18.42;;;6.85;;
17658;SDS011;8948;51.534;8.262;2022-08-21T02:43:06;12.90;;;7.07;;
17658;SDS011;8948;51.534;8.262;2022-08-21T02:48:08;14.40;;;7.60;;
17658;SDS011;8948;51.534;8.262;2022-08-21T02:53:11;16.80;;;7.07;;
17658;SDS011;8948;51.534;8.262;2022-08-21T02:58:16;23.73;;;7.05;;
17658;SDS011;8948;51.534;8.262;2022-08-21T03:03:19;12.65;;;6.70;;
17658;SDS011;8948;51.534;8.262;2022-08-21T03:08:21;18.85;;;6.55;;
17658;SDS011;8948;51.534;8.262;2022-08-21T03:13:22;13.93;;;6.90;;
17658;SDS011;8948;51.534;8.262;2022-08-21T03:18:23;19.98;;;7.85;;
17658;SDS011;8948;51.534;8.262;2022-08-21T03:23:24;17.83;;;6.82;;
17658;SDS011;8948;51.534;8.262;2022-08-21T03:28:24;17.95;;;7.90;;
17658;SDS011;8948;51.534;8.262;2022-08-21T03:33:25;14.80;;;7.20;;
17658;SDS011;8948;51.534;8.262;2022-08-21T03:38:26;19.02;;;7.28;;
17658;SDS011;8948;51.534;8.262;2022-08-21T03:43:28;17.33;;;6.90;;
17658;SDS011;8948;51.534;8.262;2022-08-21T03:48:32;17.38;;;6.90;;
17658;SDS011;8948;51.534;8.262;2022-08-21T03:53:34;25.15;;;7.75;;
17658;SDS011;8948;51.534;8.262;2022-08-21T03:58:35;20.38;;;7.25;;
17658;SDS011;8948;51.534;8.262;2022-08-21T04:03:36;23.63;;;7.10;;
17658;SDS011;8948;51.534;8.262;2022-08-21T04:08:37;19.27;;;7.22;;
17658;SDS011;8948;51.534;8.262;2022-08-21T04:13:38;20.50;;;7.43;;
17658;SDS011;8948;51.534;8.262;2022-08-21T04:18:40;15.55;;;7.30;;
17658;SDS011;8948;51.534;8.262;2022-08-21T04:23:42;12.00;;;4.95;;
17658;SDS011;8948;51.534;8.262;2022-08-21T04:28:42;16.85;;;5.00;;
17658;SDS011;8948;51.534;8.262;2022-08-21T04:33:43;10.30;;;4.75;;
17658;SDS011;8948;51.534;8.262;2022-08-21T04:38:44;9.48;;;4.90;;
17658;SDS011;8948;51.534;8.262;2022-08-21T04:43:45;11.65;;;5.63;;
17658;SDS011;8948;51.534;8.262;2022-08-21T04:48:46;11.63;;;3.97;;
17658;SDS011;8948;51.534;8.262;2022-08-21T04:53:49;17.33;;;5.35;;
17658;SDS011;8948;51.534;8.262;2022-08-21T04:58:54;13.07;;;4.45;;
17658;SDS011;8948;51.534;8.262;2022-08-21T05:03:58;11.52;;;4.43;;
17658;SDS011;8948;51.534;8.262;2022-08-21T05:08:59;12.50;;;4.63;;
17658;SDS011;8948;51.534;8.262;2022-08-21T05:14:01;11.48;;;4.28;;
17658;SDS011;8948;51.534;8.262;2022-08-21T05:19:02;11.93;;;5.30;;
17658;SDS011;8948;51.534;8.262;2022-08-21T05:24:02;19.02;;;5.63;;
17658;SDS011;8948;51.534;8.262;2022-08-21T05:29:03;17.05;;;6.35;;
17658;SDS011;8948;51.534;8.262;2022-08-21T05:34:04;13.95;;;6.07;;
17658;SDS011;8948;51.534;8.262;2022-08-21T05:39:06;14.90;;;6.80;;
17658;SDS011;8948;51.534;8.262;2022-08-21T05:44:06;16.83;;;6.68;;
17658;SDS011;8948;51.534;8.262;2022-08-21T05:49:07;17.13;;;6.90;;
17658;SDS011;8948;51.534;8.262;2022-08-21T05:54:08;19.88;;;7.22;;
17658;SDS011;8948;51.534;8.262;2022-08-21T05:59:08;16.38;;;6.85;;
17658;SDS011;8948;51.534;8.262;2022-08-21T06:04:11;23.83;;;7.10;;
17658;SDS011;8948;51.534;8.262;2022-08-21T06:09:12;15.05;;;7.18;;
17658;SDS011;8948;51.534;8.262;2022-08-21T06:14:16;20.17;;;7.30;;
17658;SDS011;8948;51.534;8.262;2022-08-21T06:19:16;16.20;;;7.25;;
17658;SDS011;8948;51.534;8.262;2022-08-21T06:24:17;22.25;;;7.47;;
17658;SDS011;8948;51.534;8.262;2022-08-21T06:29:18;15.80;;;5.97;;
17658;SDS011;8948;51.534;8.262;2022-08-21T06:34:19;13.05;;;6.25;;
17658;SDS011;8948;51.534;8.262;2022-08-21T06:39:20;16.73;;;6.82;;
17658;SDS011;8948;51.534;8.262;2022-08-21T06:44:20;15.10;;;6.45;;
17658;SDS011;8948;51.534;8.262;2022-08-21T06:49:21;12.80;;;6.28;;
17658;SDS011;8948;51.534;8.262;2022-08-21T06:54:22;16.38;;;6.40;;
17658;SDS011;8948;51.534;8.262;2022-08-21T06:59:22;13.93;;;6.20;;
17658;SDS011;8948;51.534;8.262;2022-08-21T07:04:23;12.45;;;5.18;;
17658;SDS011;8948;51.534;8.262;2022-08-21T07:09:24;17.15;;;6.15;;
17658;SDS011;8948;51.534;8.262;2022-08-21T07:14:24;18.88;;;5.18;;
17658;SDS011;8948;51.534;8.262;2022-08-21T07:19:25;22.70;;;4.80;;
17658;SDS011;8948;51.534;8.262;2022-08-21T07:24:26;16.55;;;4.95;;
17658;SDS011;8948;51.534;8.262;2022-08-21T07:29:26;11.38;;;4.60;;
17658;SDS011;8948;51.534;8.262;2022-08-21T07:34:27;12.40;;;4.82;;
17658;SDS011;8948;51.534;8.262;2022-08-21T07:39:27;17.23;;;5.10;;
17658;SDS011;8948;51.534;8.262;2022-08-21T07:44:28;18.95;;;5.00;;
17658;SDS011;8948;51.534;8.262;2022-08-21T07:49:29;15.70;;;3.70;;
17658;SDS011;8948;51.534;8.262;2022-08-21T07:54:29;18.27;;;4.30;;
17658;SDS011;8948;51.534;8.262;2022-08-21T07:59:30;12.77;;;3.85;;
17658;SDS011;8948;51.534;8.262;2022-08-21T08:04:30;12.20;;;2.70;;
17658;SDS011;8948;51.534;8.262;2022-08-21T08:09:31;12.80;;;2.72;;
17658;SDS011;8948;51.534;8.262;2022-08-21T08:14:31;22.50;;;3.38;;
17658;SDS011;8948;51.534;8.262;2022-08-21T08:19:33;10.90;;;3.20;;
17658;SDS011;8948;51.534;8.262;2022-08-21T08:24:37;16.05;;;2.75;;
17658;SDS011;8948;51.534;8.262;2022-08-21T08:29:38;10.95;;;3.22;;
17658;SDS011;8948;51.534;8.262;2022-08-21T08:34:39;13.00;;;2.92;;
17658;SDS011;8948;51.534;8.262;2022-08-21T08:39:40;12.18;;;3.33;;
17658;SDS011;8948;51.534;8.262;2022-08-21T08:44:41;9.20;;;2.80;;
17658;SDS011;8948;51.534;8.262;2022-08-21T08:49:48;8.80;;;2.83;;
17658;SDS011;8948;51.534;8.262;2022-08-21T08:55:03;10.02;;;2.88;;
17658;SDS011;8948;51.534;8.262;2022-08-21T09:00:11;14.30;;;2.90;;
17658;SDS011;8948;51.534;8.262;2022-08-21T09:05:20;7.63;;;2.10;;
17658;SDS011;8948;51.534;8.262;2022-08-21T09:10:32;9.40;;;2.40;;
17658;SDS011;8948;51.534;8.262;2022-08-21T09:22:17;11.70;;;2.58;;
17658;SDS011;8948;51.534;8.262;2022-08-21T09:27:15;10.82;;;2.38;;
17658;SDS011;8948;51.534;8.262;2022-08-21T09:32:18;11.00;;;2.75;;
17658;SDS011;8948;51.534;8.262;2022-08-21T09:37:25;8.13;;;2.55;;
17658;SDS011;8948;51.534;8.262;2022-08-21T09:42:31;6.35;;;2.65;;
17658;SDS011;8948;51.534;8.262;2022-08-21T09:47:32;7.97;;;2.42;;
17658;SDS011;8948;51.534;8.262;2022-08-21T09:52:32;8.05;;;2.47;;
17658;SDS011;8948;51.534;8.262;2022-08-21T09:57:33;11.10;;;2.78;;
17658;SDS011;8948;51.534;8.262;2022-08-21T10:02:41;9.60;;;2.67;;
17658;SDS011;8948;51.534;8.262;2022-08-21T10:07:42;7.72;;;2.40;;
17658;SDS011;8948;51.534;8.262;2022-08-21T10:18:52;7.40;;;2.35;;
17658;SDS011;8948;51.534;8.262;2022-08-21T10:34:10;6.55;;;2.45;;
17658;SDS011;8948;51.534;8.262;2022-08-21T10:39:33;8.32;;;2.30;;
17658;SDS011;8948;51.534;8.262;2022-08-21T10:44:41;9.23;;;2.42;;
17658;SDS011;8948;51.534;8.262;2022-08-21T10:49:47;7.90;;;1.95;;
17658;SDS011;8948;51.534;8.262;2022-08-21T11:00:19;7.65;;;2.28;;
17658;SDS011;8948;51.534;8.262;2022-08-21T11:05:29;6.43;;;2.15;;
17658;SDS011;8948;51.534;8.262;2022-08-21T11:10:46;6.68;;;1.98;;
17658;SDS011;8948;51.534;8.262;2022-08-21T11:53:29;9.68;;;2.60;;
17658;SDS011;8948;51.534;8.262;2022-08-21T12:03:52;6.80;;;2.42;;
17658;SDS011;8948;51.534;8.262;2022-08-21T12:08:57;8.13;;;2.25;;
17658;SDS011;8948;51.534;8.262;2022-08-21T12:19:05;8.95;;;2.03;;
17658;SDS011;8948;51.534;8.262;2022-08-21T12:29:22;8.40;;;1.95;;
17658;SDS011;8948;51.534;8.262;2022-08-21T12:34:36;9.07;;;1.50;;
17658;SDS011;8948;51.534;8.262;2022-08-21T12:39:42;7.40;;;1.55;;
17658;SDS011;8948;51.534;8.262;2022-08-21T12:44:53;9.73;;;1.60;;
17658;SDS011;8948;51.534;8.262;2022-08-21T12:55:38;11.88;;;3.78;;
17658;SDS011;8948;51.534;8.262;2022-08-21T13:00:44;20.33;;;9.75;;
17658;SDS011;8948;51.534;8.262;2022-08-21T13:05:50;7.70;;;3.08;;
17658;SDS011;8948;51.534;8.262;2022-08-21T13:10:56;15.65;;;7.35;;
17658;SDS011;8948;51.534;8.262;2022-08-21T13:16:04;7.38;;;3.58;;
17658;SDS011;8948;51.534;8.262;2022-08-21T13:21:09;7.05;;;1.67;;
17658;SDS011;8948;51.534;8.262;2022-08-21T13:26:15;5.50;;;1.50;;
17658;SDS011;8948;51.534;8.262;2022-08-21T13:31:22;8.10;;;1.20;;
17658;SDS011;8948;51.534;8.262;2022-08-21T13:36:29;11.75;;;1.88;;
17658;SDS011;8948;51.534;8.262;2022-08-21T13:41:35;8.52;;;1.77;;
17658;SDS011;8948;51.534;8.262;2022-08-21T13:46:37;5.72;;;1.75;;
17658;SDS011;8948;51.534;8.262;2022-08-21T13:51:38;5.30;;;1.60;;
17658;SDS011;8948;51.534;8.262;2022-08-21T13:56:44;4.22;;;1.42;;
17658;SDS011;8948;51.534;8.262;2022-08-21T14:01:51;6.03;;;1.65;;
17658;SDS011;8948;51.534;8.262;2022-08-21T14:06:58;7.00;;;1.63;;
17658;SDS011;8948;51.534;8.262;2022-08-21T14:12:01;5.85;;;1.75;;
17658;SDS011;8948;51.534;8.262;2022-08-21T14:17:13;4.75;;;1.60;;
17658;SDS011;8948;51.534;8.262;2022-08-21T14:22:45;5.32;;;1.58;;
17658;SDS011;8948;51.534;8.262;2022-08-21T14:32:55;6.88;;;1.60;;
17658;SDS011;8948;51.534;8.262;2022-08-21T14:37:57;7.80;;;1.27;;
17658;SDS011;8948;51.534;8.262;2022-08-21T14:42:57;5.82;;;1.40;;
17658;SDS011;8948;51.534;8.262;2022-08-21T14:47:58;4.93;;;1.45;;
17658;SDS011;8948;51.534;8.262;2022-08-21T14:52:59;4.32;;;1.40;;
17658;SDS011;8948;51.534;8.262;2022-08-21T14:58:00;4.10;;;1.40;;
17658;SDS011;8948;51.534;8.262;2022-08-21T15:03:00;6.18;;;1.58;;
17658;SDS011;8948;51.534;8.262;2022-08-21T15:08:02;2.90;;;1.10;;
17658;SDS011;8948;51.534;8.262;2022-08-21T15:13:03;4.55;;;1.33;;
17658;SDS011;8948;51.534;8.262;2022-08-21T15:18:04;8.25;;;1.27;;
17658;SDS011;8948;51.534;8.262;2022-08-21T15:23:06;4.45;;;1.00;;
17658;SDS011;8948;51.534;8.262;2022-08-21T15:28:08;2.05;;;1.13;;
17658;SDS011;8948;51.534;8.262;2022-08-21T15:33:10;3.25;;;1.10;;
17658;SDS011;8948;51.534;8.262;2022-08-21T15:38:11;2.00;;;1.05;;
17658;SDS011;8948;51.534;8.262;2022-08-21T15:43:26;2.28;;;0.75;;
17658;SDS011;8948;51.534;8.262;2022-08-21T15:48:32;3.67;;;1.20;;
17658;SDS011;8948;51.534;8.262;2022-08-21T15:53:32;4.18;;;1.20;;
17658;SDS011;8948;51.534;8.262;2022-08-21T15:58:36;2.30;;;0.93;;
17658;SDS011;8948;51.534;8.262;2022-08-21T16:03:38;3.50;;;1.30;;
17658;SDS011;8948;51.534;8.262;2022-08-21T16:08:39;2.53;;;1.23;;
17658;SDS011;8948;51.534;8.262;2022-08-21T16:13:40;5.78;;;1.40;;
17658;SDS011;8948;51.534;8.262;2022-08-21T16:18:43;3.03;;;0.90;;
17658;SDS011;8948;51.534;8.262;2022-08-21T16:23:44;3.50;;;1.00;;
17658;SDS011;8948;51.534;8.262;2022-08-21T16:28:45;2.65;;;1.20;;
17658;SDS011;8948;51.534;8.262;2022-08-21T16:33:56;3.42;;;1.33;;
17658;SDS011;8948;51.534;8.262;2022-08-21T16:38:57;2.15;;;1.10;;
17658;SDS011;8948;51.534;8.262;2022-08-21T16:43:59;5.63;;;1.15;;
17658;SDS011;8948;51.534;8.262;2022-08-21T16:49:01;3.47;;;1.30;;
17658;SDS011;8948;51.534;8.262;2022-08-21T16:54:03;4.38;;;1.38;;
17658;SDS011;8948;51.534;8.262;2022-08-21T16:59:04;3.17;;;1.10;;
17658;SDS011;8948;51.534;8.262;2022-08-21T17:04:05;4.57;;;1.20;;
17658;SDS011;8948;51.534;8.262;2022-08-21T17:09:05;2.92;;;1.20;;
17658;SDS011;8948;51.534;8.262;2022-08-21T17:14:07;4.60;;;1.50;;
17658;SDS011;8948;51.534;8.262;2022-08-21T17:19:11;4.85;;;1.52;;
17658;SDS011;8948;51.534;8.262;2022-08-21T17:24:12;2.95;;;1.02;;
17658;SDS011;8948;51.534;8.262;2022-08-21T17:29:14;5.75;;;1.27;;
17658;SDS011;8948;51.534;8.262;2022-08-21T17:34:15;3.45;;;1.30;;
17658;SDS011;8948;51.534;8.262;2022-08-21T17:39:16;6.53;;;1.45;;
17658;SDS011;8948;51.534;8.262;2022-08-21T17:44:17;7.53;;;1.20;;
17658;SDS011;8948;51.534;8.262;2022-08-21T17:49:19;3.30;;;1.45;;
17658;SDS011;8948;51.534;8.262;2022-08-21T17:54:19;3.70;;;1.20;;
17658;SDS011;8948;51.534;8.262;2022-08-21T17:59:21;4.30;;;1.70;;
17658;SDS011;8948;51.534;8.262;2022-08-21T18:04:22;6.72;;;1.52;;
17658;SDS011;8948;51.534;8.262;2022-08-21T18:09:23;4.72;;;1.50;;
17658;SDS011;8948;51.534;8.262;2022-08-21T18:14:29;6.28;;;1.55;;
17658;SDS011;8948;51.534;8.262;2022-08-21T18:19:32;5.97;;;1.40;;
17658;SDS011;8948;51.534;8.262;2022-08-21T18:24:33;6.75;;;1.45;;
17658;SDS011;8948;51.534;8.262;2022-08-21T18:29:34;3.17;;;1.23;;
17658;SDS011;8948;51.534;8.262;2022-08-21T18:34:37;4.63;;;1.23;;
17658;SDS011;8948;51.534;8.262;2022-08-21T18:39:40;5.65;;;1.38;;
17658;SDS011;8948;51.534;8.262;2022-08-21T18:44:42;3.28;;;1.30;;
17658;SDS011;8948;51.534;8.262;2022-08-21T18:49:44;3.45;;;1.30;;
17658;SDS011;8948;51.534;8.262;2022-08-21T18:54:45;9.23;;;1.45;;
17658;SDS011;8948;51.534;8.262;2022-08-21T18:59:46;3.85;;;1.50;;
17658;SDS011;8948;51.534;8.262;2022-08-21T19:04:47;4.20;;;1.42;;
17658;SDS011;8948;51.534;8.262;2022-08-21T19:09:47;8.13;;;1.83;;
17658;SDS011;8948;51.534;8.262;2022-08-21T19:14:48;5.03;;;1.42;;
17658;SDS011;8948;51.534;8.262;2022-08-21T19:19:49;3.92;;;1.35;;
17658;SDS011;8948;51.534;8.262;2022-08-21T19:24:50;5.40;;;1.90;;
17658;SDS011;8948;51.534;8.262;2022-08-21T19:29:50;4.88;;;1.48;;
17658;SDS011;8948;51.534;8.262;2022-08-21T19:34:51;6.03;;;1.52;;
17658;SDS011;8948;51.534;8.262;2022-08-21T19:39:52;5.13;;;1.77;;
17658;SDS011;8948;51.534;8.262;2022-08-21T19:44:52;3.45;;;1.50;;
17658;SDS011;8948;51.534;8.262;2022-08-21T19:49:55;6.72;;;1.60;;
17658;SDS011;8948;51.534;8.262;2022-08-21T19:54:58;9.82;;;1.83;;
17658;SDS011;8948;51.534;8.262;2022-08-21T20:00:00;4.57;;;1.50;;
17658;SDS011;8948;51.534;8.262;2022-08-21T20:05:00;4.13;;;1.60;;
17658;SDS011;8948;51.534;8.262;2022-08-21T20:10:02;6.82;;;1.38;;
17658;SDS011;8948;51.534;8.262;2022-08-21T20:15:04;11.00;;;2.20;;
17658;SDS011;8948;51.534;8.262;2022-08-21T20:20:05;5.43;;;1.80;;
17658;SDS011;8948;51.534;8.262;2022-08-21T20:25:07;3.78;;;1.63;;
17658;SDS011;8948;51.534;8.262;2022-08-21T20:30:08;5.65;;;1.30;;
17658;SDS011;8948;51.534;8.262;2022-08-21T20:35:09;8.18;;;1.98;;
17658;SDS011;8948;51.534;8.262;2022-08-21T20:40:11;5.05;;;1.50;;
17658;SDS011;8948;51.534;8.262;2022-08-21T20:45:20;4.03;;;1.58;;
17658;SDS011;8948;51.534;8.262;2022-08-21T20:50:34;4.53;;;1.60;;
17658;SDS011;8948;51.534;8.262;2022-08-21T20:55:40;9.75;;;1.85;;
